sensor_id;sensor_type;location;lat;lon;timestamp;P1;durP1;ratioP1;P2;durP2;ratioP2
13443;SDS011;6794;59.218;18.218;2023-05-07T00:01:46;4.73;;;2.10;;
13443;SDS011;6794;59.218;18.218;2023-05-07T00:04:12;2.10;;;1.90;;
13443;SDS011;6794;59.218;18.218;2023-05-07T00:06:38;2.40;;;1.90;;
13443;SDS011;6794;59.218;18.218;2023-05-07T00:09:04;2.00;;;1.80;;
13443;SDS011;6794;59.218;18.218;2023-05-07T00:11:31;4.77;;;1.83;;
13443;SDS011;6794;59.218;18.218;2023-05-07T00:13:57;2.53;;;2.23;;
13443;SDS011;6794;59.218;18.218;2023-05-07T00:16:23;3.00;;;2.40;;
13443;SDS011;6794;59.218;18.218;2023-05-07T00:18:49;3.00;;;2.20;;
13443;SDS011;6794;59.218;18.218;2023-05-07T00:21:15;2.20;;;2.00;;
13443;SDS011;6794;59.218;18.218;2023-05-07T00:23:41;2.37;;;1.90;;
13443;SDS011;6794;59.218;18.218;2023-05-07T00:26:07;2.33;;;2.00;;
13443;SDS011;6794;59.218;18.218;2023-05-07T00:28:33;3.20;;;2.20;;
13443;SDS011;6794;59.218;18.218;2023-05-07T00:30:59;2.40;;;1.97;;
13443;SDS011;6794;59.218;18.218;2023-05-07T00:33:25;3.63;;;2.50;;
13443;SDS011;6794;59.218;18.218;2023-05-07T00:35:52;3.00;;;1.97;;
13443;SDS011;6794;59.218;18.218;2023-05-07T00:38:19;2.97;;;2.30;;
13443;SDS011;6794;59.218;18.218;2023-05-07T00:40:45;2.70;;;1.93;;
13443;SDS011;6794;59.218;18.218;2023-05-07T00:43:11;2.57;;;2.30;;
13443;SDS011;6794;59.218;18.218;2023-05-07T00:45:37;6.03;;;2.20;;
13443;SDS011;6794;59.218;18.218;2023-05-07T00:48:04;3.40;;;1.87;;
13443;SDS011;6794;59.218;18.218;2023-05-07T00:50:30;4.57;;;2.30;;
13443;SDS011;6794;59.218;18.218;2023-05-07T00:52:57;6.43;;;2.60;;
13443;SDS011;6794;59.218;18.218;2023-05-07T00:55:23;2.50;;;2.20;;
13443;SDS011;6794;59.218;18.218;2023-05-07T00:57:50;2.43;;;2.20;;
13443;SDS011;6794;59.218;18.218;2023-05-07T01:00:16;2.37;;;2.00;;
13443;SDS011;6794;59.218;18.218;2023-05-07T01:02:43;2.90;;;2.00;;
13443;SDS011;6794;59.218;18.218;2023-05-07T01:05:12;2.10;;;1.87;;
13443;SDS011;6794;59.218;18.218;2023-05-07T01:07:40;3.43;;;2.20;;
13443;SDS011;6794;59.218;18.218;2023-05-07T01:10:06;2.67;;;2.20;;
13443;SDS011;6794;59.218;18.218;2023-05-07T01:12:33;2.93;;;2.20;;
13443;SDS011;6794;59.218;18.218;2023-05-07T01:15:00;4.03;;;2.70;;
13443;SDS011;6794;59.218;18.218;2023-05-07T01:17:26;5.07;;;2.40;;
13443;SDS011;6794;59.218;18.218;2023-05-07T01:19:52;3.30;;;2.10;;
13443;SDS011;6794;59.218;18.218;2023-05-07T01:22:28;3.47;;;2.27;;
13443;SDS011;6794;59.218;18.218;2023-05-07T01:24:56;2.27;;;1.77;;
13443;SDS011;6794;59.218;18.218;2023-05-07T01:27:24;2.27;;;1.73;;
13443;SDS011;6794;59.218;18.218;2023-05-07T01:29:50;3.73;;;2.40;;
13443;SDS011;6794;59.218;18.218;2023-05-07T01:32:16;3.27;;;1.97;;
13443;SDS011;6794;59.218;18.218;2023-05-07T01:34:44;2.63;;;1.97;;
13443;SDS011;6794;59.218;18.218;2023-05-07T01:37:11;2.93;;;2.10;;
13443;SDS011;6794;59.218;18.218;2023-05-07T01:39:38;2.20;;;1.80;;
13443;SDS011;6794;59.218;18.218;2023-05-07T01:42:05;2.87;;;2.10;;
13443;SDS011;6794;59.218;18.218;2023-05-07T01:44:31;2.73;;;2.00;;
13443;SDS011;6794;59.218;18.218;2023-05-07T01:46:57;3.30;;;2.03;;
13443;SDS011;6794;59.218;18.218;2023-05-07T01:49:24;3.13;;;2.10;;
13443;SDS011;6794;59.218;18.218;2023-05-07T01:51:51;4.67;;;2.30;;
13443;SDS011;6794;59.218;18.218;2023-05-07T01:54:17;3.13;;;2.13;;
13443;SDS011;6794;59.218;18.218;2023-05-07T01:56:43;2.07;;;1.87;;
13443;SDS011;6794;59.218;18.218;2023-05-07T01:59:09;4.00;;;1.97;;
13443;SDS011;6794;59.218;18.218;2023-05-07T02:01:35;2.77;;;2.07;;
13443;SDS011;6794;59.218;18.218;2023-05-07T02:04:01;2.23;;;2.00;;
13443;SDS011;6794;59.218;18.218;2023-05-07T02:06:27;3.03;;;1.80;;
13443;SDS011;6794;59.218;18.218;2023-05-07T02:08:53;2.80;;;1.97;;
13443;SDS011;6794;59.218;18.218;2023-05-07T02:11:19;2.50;;;2.00;;
13443;SDS011;6794;59.218;18.218;2023-05-07T02:13:45;2.30;;;2.10;;
13443;SDS011;6794;59.218;18.218;2023-05-07T02:16:11;4.13;;;2.10;;
13443;SDS011;6794;59.218;18.218;2023-05-07T02:18:39;2.43;;;1.90;;
13443;SDS011;6794;59.218;18.218;2023-05-07T02:21:05;2.30;;;2.10;;
13443;SDS011;6794;59.218;18.218;2023-05-07T02:23:31;2.90;;;2.00;;
13443;SDS011;6794;59.218;18.218;2023-05-07T02:25:57;2.10;;;1.90;;
13443;SDS011;6794;59.218;18.218;2023-05-07T02:28:23;2.93;;;2.10;;
13443;SDS011;6794;59.218;18.218;2023-05-07T02:30:49;2.70;;;2.00;;
13443;SDS011;6794;59.218;18.218;2023-05-07T02:33:15;2.25;;;1.95;;
13443;SDS011;6794;59.218;18.218;2023-05-07T02:35:41;2.30;;;2.00;;
13443;SDS011;6794;59.218;18.218;2023-05-07T02:38:07;1.97;;;1.77;;
13443;SDS011;6794;59.218;18.218;2023-05-07T02:40:35;2.83;;;2.13;;
13443;SDS011;6794;59.218;18.218;2023-05-07T02:43:04;2.00;;;1.80;;
13443;SDS011;6794;59.218;18.218;2023-05-07T02:45:31;3.30;;;2.23;;
13443;SDS011;6794;59.218;18.218;2023-05-07T02:47:57;2.60;;;2.13;;
13443;SDS011;6794;59.218;18.218;2023-05-07T02:50:23;2.47;;;2.10;;
13443;SDS011;6794;59.218;18.218;2023-05-07T02:52:50;3.93;;;2.10;;
13443;SDS011;6794;59.218;18.218;2023-05-07T02:55:16;4.73;;;2.10;;
13443;SDS011;6794;59.218;18.218;2023-05-07T02:57:42;2.60;;;2.10;;
13443;SDS011;6794;59.218;18.218;2023-05-07T03:00:14;1.90;;;1.70;;
13443;SDS011;6794;59.218;18.218;2023-05-07T03:02:41;4.93;;;2.03;;
13443;SDS011;6794;59.218;18.218;2023-05-07T03:05:07;3.60;;;2.13;;
13443;SDS011;6794;59.218;18.218;2023-05-07T03:07:34;2.80;;;2.00;;
13443;SDS011;6794;59.218;18.218;2023-05-07T03:10:00;2.17;;;1.97;;
13443;SDS011;6794;59.218;18.218;2023-05-07T03:12:26;1.83;;;1.70;;
13443;SDS011;6794;59.218;18.218;2023-05-07T03:14:52;3.25;;;2.55;;
13443;SDS011;6794;59.218;18.218;2023-05-07T03:17:18;2.27;;;2.03;;
13443;SDS011;6794;59.218;18.218;2023-05-07T03:19:44;2.40;;;2.07;;
13443;SDS011;6794;59.218;18.218;2023-05-07T03:22:10;2.73;;;2.07;;
13443;SDS011;6794;59.218;18.218;2023-05-07T03:24:36;5.47;;;1.77;;
13443;SDS011;6794;59.218;18.218;2023-05-07T03:27:02;3.10;;;1.70;;
13443;SDS011;6794;59.218;18.218;2023-05-07T03:29:28;1.70;;;1.60;;
13443;SDS011;6794;59.218;18.218;2023-05-07T03:31:55;2.10;;;1.90;;
13443;SDS011;6794;59.218;18.218;2023-05-07T03:34:21;2.00;;;1.80;;
13443;SDS011;6794;59.218;18.218;2023-05-07T03:36:48;2.80;;;2.00;;
13443;SDS011;6794;59.218;18.218;2023-05-07T03:39:14;2.90;;;2.10;;
13443;SDS011;6794;59.218;18.218;2023-05-07T03:41:40;2.73;;;1.97;;
13443;SDS011;6794;59.218;18.218;2023-05-07T03:44:06;2.83;;;1.57;;
13443;SDS011;6794;59.218;18.218;2023-05-07T03:46:32;1.93;;;1.73;;
13443;SDS011;6794;59.218;18.218;2023-05-07T03:48:58;2.40;;;2.00;;
13443;SDS011;6794;59.218;18.218;2023-05-07T03:51:24;2.73;;;1.90;;
13443;SDS011;6794;59.218;18.218;2023-05-07T03:53:50;3.60;;;2.13;;
13443;SDS011;6794;59.218;18.218;2023-05-07T03:56:22;2.57;;;2.03;;
13443;SDS011;6794;59.218;18.218;2023-05-07T03:58:48;3.90;;;2.10;;
13443;SDS011;6794;59.218;18.218;2023-05-07T04:01:14;2.30;;;2.03;;
13443;SDS011;6794;59.218;18.218;2023-05-07T04:03:40;2.10;;;1.90;;
13443;SDS011;6794;59.218;18.218;2023-05-07T04:06:06;2.13;;;1.80;;
13443;SDS011;6794;59.218;18.218;2023-05-07T04:08:32;2.87;;;1.90;;
13443;SDS011;6794;59.218;18.218;2023-05-07T04:10:58;1.73;;;1.50;;
13443;SDS011;6794;59.218;18.218;2023-05-07T04:13:25;1.73;;;1.60;;
13443;SDS011;6794;59.218;18.218;2023-05-07T04:15:51;2.20;;;1.93;;
13443;SDS011;6794;59.218;18.218;2023-05-07T04:18:17;1.97;;;1.57;;
13443;SDS011;6794;59.218;18.218;2023-05-07T04:20:43;2.60;;;1.97;;
13443;SDS011;6794;59.218;18.218;2023-05-07T04:23:10;2.07;;;1.60;;
13443;SDS011;6794;59.218;18.218;2023-05-07T04:25:36;3.67;;;2.40;;
13443;SDS011;6794;59.218;18.218;2023-05-07T04:28:02;2.60;;;1.50;;
13443;SDS011;6794;59.218;18.218;2023-05-07T04:30:28;3.93;;;1.80;;
13443;SDS011;6794;59.218;18.218;2023-05-07T04:32:54;2.47;;;2.27;;
13443;SDS011;6794;59.218;18.218;2023-05-07T04:35:21;3.70;;;2.27;;
13443;SDS011;6794;59.218;18.218;2023-05-07T04:37:47;4.97;;;1.90;;
13443;SDS011;6794;59.218;18.218;2023-05-07T04:40:13;3.10;;;1.60;;
13443;SDS011;6794;59.218;18.218;2023-05-07T04:42:39;1.67;;;1.53;;
13443;SDS011;6794;59.218;18.218;2023-05-07T04:45:05;1.60;;;1.50;;
13443;SDS011;6794;59.218;18.218;2023-05-07T04:47:31;1.93;;;1.53;;
13443;SDS011;6794;59.218;18.218;2023-05-07T04:49:57;2.57;;;1.63;;
13443;SDS011;6794;59.218;18.218;2023-05-07T04:52:23;4.50;;;2.37;;
13443;SDS011;6794;59.218;18.218;2023-05-07T04:54:49;3.23;;;2.33;;
13443;SDS011;6794;59.218;18.218;2023-05-07T04:57:15;2.60;;;2.40;;
13443;SDS011;6794;59.218;18.218;2023-05-07T04:59:42;2.40;;;2.20;;
13443;SDS011;6794;59.218;18.218;2023-05-07T05:02:09;2.67;;;2.13;;
13443;SDS011;6794;59.218;18.218;2023-05-07T05:04:36;2.40;;;2.17;;
13443;SDS011;6794;59.218;18.218;2023-05-07T05:07:02;3.73;;;2.17;;
13443;SDS011;6794;59.218;18.218;2023-05-07T05:09:31;2.60;;;2.40;;
13443;SDS011;6794;59.218;18.218;2023-05-07T05:11:57;2.80;;;2.40;;
13443;SDS011;6794;59.218;18.218;2023-05-07T05:14:23;2.83;;;2.38;;
13443;SDS011;6794;59.218;18.218;2023-05-07T05:16:49;3.10;;;2.20;;
13443;SDS011;6794;59.218;18.218;2023-05-07T05:19:15;2.30;;;2.10;;
13443;SDS011;6794;59.218;18.218;2023-05-07T05:21:41;1.97;;;1.80;;
13443;SDS011;6794;59.218;18.218;2023-05-07T05:24:07;1.97;;;1.77;;
13443;SDS011;6794;59.218;18.218;2023-05-07T05:26:34;1.60;;;1.50;;
13443;SDS011;6794;59.218;18.218;2023-05-07T05:29:00;2.13;;;1.23;;
13443;SDS011;6794;59.218;18.218;2023-05-07T05:31:26;2.27;;;1.50;;
13443;SDS011;6794;59.218;18.218;2023-05-07T05:33:52;1.57;;;1.47;;
13443;SDS011;6794;59.218;18.218;2023-05-07T05:36:18;1.87;;;1.43;;
13443;SDS011;6794;59.218;18.218;2023-05-07T05:38:44;2.33;;;1.20;;
13443;SDS011;6794;59.218;18.218;2023-05-07T05:41:10;1.43;;;1.10;;
13443;SDS011;6794;59.218;18.218;2023-05-07T05:43:36;2.07;;;1.60;;
13443;SDS011;6794;59.218;18.218;2023-05-07T05:46:02;1.50;;;1.40;;
13443;SDS011;6794;59.218;18.218;2023-05-07T05:48:29;1.30;;;1.20;;
13443;SDS011;6794;59.218;18.218;2023-05-07T05:50:55;1.50;;;1.40;;
13443;SDS011;6794;59.218;18.218;2023-05-07T05:53:21;1.38;;;1.27;;
13443;SDS011;6794;59.218;18.218;2023-05-07T05:55:47;1.50;;;1.40;;
13443;SDS011;6794;59.218;18.218;2023-05-07T05:58:13;2.30;;;1.50;;
13443;SDS011;6794;59.218;18.218;2023-05-07T06:00:40;2.83;;;1.50;;
13443;SDS011;6794;59.218;18.218;2023-05-07T06:03:06;1.73;;;1.57;;
13443;SDS011;6794;59.218;18.218;2023-05-07T06:05:32;1.47;;;1.37;;
13443;SDS011;6794;59.218;18.218;2023-05-07T06:07:58;2.17;;;1.60;;
13443;SDS011;6794;59.218;18.218;2023-05-07T06:10:24;1.50;;;1.27;;
13443;SDS011;6794;59.218;18.218;2023-05-07T06:12:52;1.70;;;1.60;;
13443;SDS011;6794;59.218;18.218;2023-05-07T06:15:18;1.97;;;1.50;;
13443;SDS011;6794;59.218;18.218;2023-05-07T06:17:44;3.20;;;1.50;;
13443;SDS011;6794;59.218;18.218;2023-05-07T06:20:10;1.50;;;1.40;;
13443;SDS011;6794;59.218;18.218;2023-05-07T06:22:36;2.50;;;1.60;;
13443;SDS011;6794;59.218;18.218;2023-05-07T06:25:02;1.90;;;1.53;;
13443;SDS011;6794;59.218;18.218;2023-05-07T06:27:28;3.27;;;1.50;;
13443;SDS011;6794;59.218;18.218;2023-05-07T06:29:54;3.10;;;1.43;;
13443;SDS011;6794;59.218;18.218;2023-05-07T06:32:20;2.20;;;1.50;;
13443;SDS011;6794;59.218;18.218;2023-05-07T06:34:46;1.90;;;1.50;;
13443;SDS011;6794;59.218;18.218;2023-05-07T06:37:12;1.50;;;1.23;;
13443;SDS011;6794;59.218;18.218;2023-05-07T06:39:38;1.53;;;1.37;;
13443;SDS011;6794;59.218;18.218;2023-05-07T06:42:04;3.27;;;1.20;;
13443;SDS011;6794;59.218;18.218;2023-05-07T06:44:30;1.37;;;1.27;;
13443;SDS011;6794;59.218;18.218;2023-05-07T06:46:57;2.53;;;1.50;;
13443;SDS011;6794;59.218;18.218;2023-05-07T06:49:23;1.60;;;1.20;;
13443;SDS011;6794;59.218;18.218;2023-05-07T06:51:49;1.93;;;1.30;;
13443;SDS011;6794;59.218;18.218;2023-05-07T06:54:15;1.40;;;1.30;;
13443;SDS011;6794;59.218;18.218;2023-05-07T06:56:41;2.30;;;1.40;;
13443;SDS011;6794;59.218;18.218;2023-05-07T06:59:07;2.30;;;1.47;;
13443;SDS011;6794;59.218;18.218;2023-05-07T07:01:33;1.97;;;1.63;;
13443;SDS011;6794;59.218;18.218;2023-05-07T07:03:59;1.70;;;1.60;;
13443;SDS011;6794;59.218;18.218;2023-05-07T07:06:25;2.17;;;1.40;;
13443;SDS011;6794;59.218;18.218;2023-05-07T07:08:52;1.43;;;1.33;;
13443;SDS011;6794;59.218;18.218;2023-05-07T07:11:18;1.40;;;1.30;;
13443;SDS011;6794;59.218;18.218;2023-05-07T07:13:44;2.00;;;1.38;;
13443;SDS011;6794;59.218;18.218;2023-05-07T07:16:10;1.53;;;1.30;;
13443;SDS011;6794;59.218;18.218;2023-05-07T07:18:36;2.63;;;1.20;;
13443;SDS011;6794;59.218;18.218;2023-05-07T07:21:02;1.37;;;1.03;;
13443;SDS011;6794;59.218;18.218;2023-05-07T07:23:28;1.03;;;0.97;;
13443;SDS011;6794;59.218;18.218;2023-05-07T07:25:54;1.23;;;1.13;;
13443;SDS011;6794;59.218;18.218;2023-05-07T07:28:20;1.20;;;1.10;;
13443;SDS011;6794;59.218;18.218;2023-05-07T07:30:46;2.33;;;1.00;;
13443;SDS011;6794;59.218;18.218;2023-05-07T07:33:12;1.50;;;1.40;;
13443;SDS011;6794;59.218;18.218;2023-05-07T07:35:39;2.20;;;1.13;;
13443;SDS011;6794;59.218;18.218;2023-05-07T07:38:05;1.47;;;1.13;;
13443;SDS011;6794;59.218;18.218;2023-05-07T07:40:31;1.30;;;1.00;;
13443;SDS011;6794;59.218;18.218;2023-05-07T07:42:57;1.97;;;1.20;;
13443;SDS011;6794;59.218;18.218;2023-05-07T07:45:24;1.00;;;1.00;;
13443;SDS011;6794;59.218;18.218;2023-05-07T07:47:50;1.40;;;1.20;;
13443;SDS011;6794;59.218;18.218;2023-05-07T07:50:17;2.97;;;1.27;;
13443;SDS011;6794;59.218;18.218;2023-05-07T07:52:43;1.93;;;1.20;;
13443;SDS011;6794;59.218;18.218;2023-05-07T07:55:09;2.30;;;1.17;;
13443;SDS011;6794;59.218;18.218;2023-05-07T07:57:35;1.00;;;1.00;;
13443;SDS011;6794;59.218;18.218;2023-05-07T08:00:02;2.43;;;1.30;;
13443;SDS011;6794;59.218;18.218;2023-05-07T08:02:28;1.30;;;1.20;;
13443;SDS011;6794;59.218;18.218;2023-05-07T08:04:54;1.63;;;1.20;;
13443;SDS011;6794;59.218;18.218;2023-05-07T08:07:20;2.00;;;1.20;;
13443;SDS011;6794;59.218;18.218;2023-05-07T08:09:47;2.13;;;1.20;;
13443;SDS011;6794;59.218;18.218;2023-05-07T08:12:14;2.23;;;1.20;;
13443;SDS011;6794;59.218;18.218;2023-05-07T08:14:40;3.87;;;1.30;;
13443;SDS011;6794;59.218;18.218;2023-05-07T08:17:06;1.87;;;1.17;;
13443;SDS011;6794;59.218;18.218;2023-05-07T08:19:34;1.60;;;1.47;;
13443;SDS011;6794;59.218;18.218;2023-05-07T08:22:00;2.30;;;1.20;;
13443;SDS011;6794;59.218;18.218;2023-05-07T08:24:26;2.10;;;1.20;;
13443;SDS011;6794;59.218;18.218;2023-05-07T08:26:52;2.00;;;1.40;;
13443;SDS011;6794;59.218;18.218;2023-05-07T08:29:18;2.13;;;1.07;;
13443;SDS011;6794;59.218;18.218;2023-05-07T08:31:44;1.43;;;1.20;;
13443;SDS011;6794;59.218;18.218;2023-05-07T08:34:10;1.63;;;1.15;;
13443;SDS011;6794;59.218;18.218;2023-05-07T08:36:36;1.67;;;1.30;;
13443;SDS011;6794;59.218;18.218;2023-05-07T08:39:02;4.17;;;1.20;;
13443;SDS011;6794;59.218;18.218;2023-05-07T08:41:29;1.27;;;1.17;;
13443;SDS011;6794;59.218;18.218;2023-05-07T08:43:55;1.30;;;1.20;;
13443;SDS011;6794;59.218;18.218;2023-05-07T08:46:23;1.27;;;1.10;;
13443;SDS011;6794;59.218;18.218;2023-05-07T08:48:50;2.30;;;1.50;;
13443;SDS011;6794;59.218;18.218;2023-05-07T08:51:19;0.93;;;0.90;;
13443;SDS011;6794;59.218;18.218;2023-05-07T08:53:47;1.13;;;1.03;;
13443;SDS011;6794;59.218;18.218;2023-05-07T08:56:16;1.40;;;1.07;;
13443;SDS011;6794;59.218;18.218;2023-05-07T08:58:43;2.90;;;1.27;;
13443;SDS011;6794;59.218;18.218;2023-05-07T09:01:10;1.30;;;1.10;;
13443;SDS011;6794;59.218;18.218;2023-05-07T09:03:38;2.95;;;1.20;;
13443;SDS011;6794;59.218;18.218;2023-05-07T09:06:05;1.17;;;0.97;;
13443;SDS011;6794;59.218;18.218;2023-05-07T09:08:32;1.17;;;1.07;;
13443;SDS011;6794;59.218;18.218;2023-05-07T09:10:58;1.40;;;1.00;;
13443;SDS011;6794;59.218;18.218;2023-05-07T09:13:25;2.28;;;1.38;;
13443;SDS011;6794;59.218;18.218;2023-05-07T09:15:51;1.37;;;0.87;;
13443;SDS011;6794;59.218;18.218;2023-05-07T09:18:17;2.17;;;1.33;;
13443;SDS011;6794;59.218;18.218;2023-05-07T09:20:43;1.90;;;1.30;;
13443;SDS011;6794;59.218;18.218;2023-05-07T09:23:09;1.30;;;1.20;;
13443;SDS011;6794;59.218;18.218;2023-05-07T09:25:35;2.00;;;1.50;;
13443;SDS011;6794;59.218;18.218;2023-05-07T09:28:02;1.43;;;1.30;;
13443;SDS011;6794;59.218;18.218;2023-05-07T09:30:31;2.43;;;1.30;;
13443;SDS011;6794;59.218;18.218;2023-05-07T09:32:58;1.27;;;1.17;;
13443;SDS011;6794;59.218;18.218;2023-05-07T09:35:25;1.20;;;1.10;;
13443;SDS011;6794;59.218;18.218;2023-05-07T09:37:57;1.63;;;1.30;;
13443;SDS011;6794;59.218;18.218;2023-05-07T09:40:24;2.47;;;1.03;;
13443;SDS011;6794;59.218;18.218;2023-05-07T09:42:51;3.47;;;1.40;;
13443;SDS011;6794;59.218;18.218;2023-05-07T09:45:27;1.17;;;1.00;;
13443;SDS011;6794;59.218;18.218;2023-05-07T09:47:55;1.20;;;0.90;;
13443;SDS011;6794;59.218;18.218;2023-05-07T09:50:22;2.40;;;1.30;;
13443;SDS011;6794;59.218;18.218;2023-05-07T09:52:52;1.40;;;1.30;;
13443;SDS011;6794;59.218;18.218;2023-05-07T09:55:18;3.65;;;1.50;;
13443;SDS011;6794;59.218;18.218;2023-05-07T09:57:44;2.17;;;1.50;;
13443;SDS011;6794;59.218;18.218;2023-05-07T10:00:11;1.20;;;1.10;;
13443;SDS011;6794;59.218;18.218;2023-05-07T10:02:37;1.43;;;1.30;;
13443;SDS011;6794;59.218;18.218;2023-05-07T10:05:11;2.57;;;1.43;;
13443;SDS011;6794;59.218;18.218;2023-05-07T10:07:37;1.43;;;1.10;;
13443;SDS011;6794;59.218;18.218;2023-05-07T10:10:04;1.57;;;1.30;;
13443;SDS011;6794;59.218;18.218;2023-05-07T10:12:30;2.00;;;1.20;;
13443;SDS011;6794;59.218;18.218;2023-05-07T10:15:02;2.53;;;1.13;;
13443;SDS011;6794;59.218;18.218;2023-05-07T10:17:29;1.40;;;1.30;;
13443;SDS011;6794;59.218;18.218;2023-05-07T10:19:55;1.47;;;1.30;;
13443;SDS011;6794;59.218;18.218;2023-05-07T10:22:21;1.20;;;1.10;;
13443;SDS011;6794;59.218;18.218;2023-05-07T10:24:47;1.27;;;1.17;;
13443;SDS011;6794;59.218;18.218;2023-05-07T10:27:14;1.40;;;1.20;;
13443;SDS011;6794;59.218;18.218;2023-05-07T10:34:47;2.55;;;1.33;;
13443;SDS011;6794;59.218;18.218;2023-05-07T10:37:13;4.73;;;2.43;;
13443;SDS011;6794;59.218;18.218;2023-05-07T10:39:39;1.60;;;1.30;;
13443;SDS011;6794;59.218;18.218;2023-05-07T10:42:09;1.97;;;1.20;;
13443;SDS011;6794;59.218;18.218;2023-05-07T10:44:36;1.33;;;1.23;;
13443;SDS011;6794;59.218;18.218;2023-05-07T10:47:06;3.93;;;2.00;;
13443;SDS011;6794;59.218;18.218;2023-05-07T10:49:34;2.23;;;1.30;;
13443;SDS011;6794;59.218;18.218;2023-05-07T10:52:22;1.30;;;1.20;;
13443;SDS011;6794;59.218;18.218;2023-05-07T10:57:35;2.73;;;1.10;;
13443;SDS011;6794;59.218;18.218;2023-05-07T11:00:01;2.23;;;1.40;;
13443;SDS011;6794;59.218;18.218;2023-05-07T11:05:29;2.50;;;1.40;;
13443;SDS011;6794;59.218;18.218;2023-05-07T11:07:57;2.03;;;1.50;;
13443;SDS011;6794;59.218;18.218;2023-05-07T11:10:23;4.20;;;1.30;;
13443;SDS011;6794;59.218;18.218;2023-05-07T11:12:50;2.50;;;1.20;;
13443;SDS011;6794;59.218;18.218;2023-05-07T11:15:34;2.15;;;1.50;;
13443;SDS011;6794;59.218;18.218;2023-05-07T11:18:00;2.70;;;1.33;;
13443;SDS011;6794;59.218;18.218;2023-05-07T11:20:50;4.20;;;1.50;;
13443;SDS011;6794;59.218;18.218;2023-05-07T11:26:06;2.27;;;1.20;;
13443;SDS011;6794;59.218;18.218;2023-05-07T11:28:38;1.30;;;1.20;;
13443;SDS011;6794;59.218;18.218;2023-05-07T11:31:06;1.60;;;1.50;;
13443;SDS011;6794;59.218;18.218;2023-05-07T11:33:33;2.17;;;1.30;;
13443;SDS011;6794;59.218;18.218;2023-05-07T11:36:00;2.77;;;1.37;;
13443;SDS011;6794;59.218;18.218;2023-05-07T11:38:28;2.40;;;1.20;;
13443;SDS011;6794;59.218;18.218;2023-05-07T11:41:16;1.90;;;1.43;;
13443;SDS011;6794;59.218;18.218;2023-05-07T11:43:54;1.87;;;1.30;;
13443;SDS011;6794;59.218;18.218;2023-05-07T11:46:21;2.03;;;1.40;;
13443;SDS011;6794;59.218;18.218;2023-05-07T11:48:47;2.10;;;1.60;;
13443;SDS011;6794;59.218;18.218;2023-05-07T11:51:13;2.40;;;1.40;;
13443;SDS011;6794;59.218;18.218;2023-05-07T11:53:44;2.13;;;1.53;;
13443;SDS011;6794;59.218;18.218;2023-05-07T11:56:13;2.45;;;1.63;;
13443;SDS011;6794;59.218;18.218;2023-05-07T11:58:40;3.90;;;1.50;;
13443;SDS011;6794;59.218;18.218;2023-05-07T12:01:10;1.30;;;1.20;;
13443;SDS011;6794;59.218;18.218;2023-05-07T12:03:37;1.60;;;1.40;;
13443;SDS011;6794;59.218;18.218;2023-05-07T12:06:05;2.00;;;1.10;;
13443;SDS011;6794;59.218;18.218;2023-05-07T12:08:32;3.37;;;1.40;;
13443;SDS011;6794;59.218;18.218;2023-05-07T12:10:58;3.17;;;1.60;;
13443;SDS011;6794;59.218;18.218;2023-05-07T12:13:24;1.53;;;1.20;;
13443;SDS011;6794;59.218;18.218;2023-05-07T12:15:54;2.00;;;1.40;;
13443;SDS011;6794;59.218;18.218;2023-05-07T12:18:21;2.47;;;1.50;;
13443;SDS011;6794;59.218;18.218;2023-05-07T12:20:47;3.13;;;1.27;;
13443;SDS011;6794;59.218;18.218;2023-05-07T12:23:14;1.83;;;1.50;;
13443;SDS011;6794;59.218;18.218;2023-05-07T12:25:40;1.30;;;1.20;;
13443;SDS011;6794;59.218;18.218;2023-05-07T12:28:13;1.57;;;1.37;;
13443;SDS011;6794;59.218;18.218;2023-05-07T12:30:43;2.80;;;1.43;;
13443;SDS011;6794;59.218;18.218;2023-05-07T12:33:09;2.00;;;1.30;;
13443;SDS011;6794;59.218;18.218;2023-05-07T12:35:42;2.30;;;1.30;;
13443;SDS011;6794;59.218;18.218;2023-05-07T12:38:12;1.73;;;1.40;;
13443;SDS011;6794;59.218;18.218;2023-05-07T12:40:39;2.37;;;1.37;;
13443;SDS011;6794;59.218;18.218;2023-05-07T12:43:06;2.30;;;1.40;;
13443;SDS011;6794;59.218;18.218;2023-05-07T12:45:38;1.87;;;1.30;;
13443;SDS011;6794;59.218;18.218;2023-05-07T12:48:05;1.27;;;1.17;;
13443;SDS011;6794;59.218;18.218;2023-05-07T12:50:31;2.03;;;1.20;;
13443;SDS011;6794;59.218;18.218;2023-05-07T12:53:00;1.67;;;1.33;;
13443;SDS011;6794;59.218;18.218;2023-05-07T12:55:30;1.27;;;1.10;;
13443;SDS011;6794;59.218;18.218;2023-05-07T12:57:57;1.40;;;1.10;;
13443;SDS011;6794;59.218;18.218;2023-05-07T13:01:00;4.20;;;1.50;;
13443;SDS011;6794;59.218;18.218;2023-05-07T13:03:22;1.30;;;1.20;;
13443;SDS011;6794;59.218;18.218;2023-05-07T13:05:49;2.50;;;1.30;;
13443;SDS011;6794;59.218;18.218;2023-05-07T13:10:50;1.80;;;1.20;;
13443;SDS011;6794;59.218;18.218;2023-05-07T13:13:17;2.73;;;1.57;;
13443;SDS011;6794;59.218;18.218;2023-05-07T13:15:43;2.03;;;1.17;;
13443;SDS011;6794;59.218;18.218;2023-05-07T13:18:09;2.88;;;1.40;;
13443;SDS011;6794;59.218;18.218;2023-05-07T13:20:36;2.40;;;1.40;;
13443;SDS011;6794;59.218;18.218;2023-05-07T13:23:02;4.50;;;1.40;;
13443;SDS011;6794;59.218;18.218;2023-05-07T13:25:29;3.20;;;1.20;;
13443;SDS011;6794;59.218;18.218;2023-05-07T13:27:56;5.40;;;1.70;;
13443;SDS011;6794;59.218;18.218;2023-05-07T13:30:22;2.20;;;1.40;;
13443;SDS011;6794;59.218;18.218;2023-05-07T13:32:48;1.30;;;1.20;;
13443;SDS011;6794;59.218;18.218;2023-05-07T13:35:15;2.87;;;1.60;;
13443;SDS011;6794;59.218;18.218;2023-05-07T13:37:42;2.27;;;1.03;;
13443;SDS011;6794;59.218;18.218;2023-05-07T13:40:08;1.90;;;1.30;;
13443;SDS011;6794;59.218;18.218;2023-05-07T13:42:34;3.40;;;1.50;;
13443;SDS011;6794;59.218;18.218;2023-05-07T13:45:00;2.60;;;1.33;;
13443;SDS011;6794;59.218;18.218;2023-05-07T13:47:29;3.93;;;1.20;;
13443;SDS011;6794;59.218;18.218;2023-05-07T13:49:55;1.50;;;1.10;;
13443;SDS011;6794;59.218;18.218;2023-05-07T13:52:21;1.30;;;1.13;;
13443;SDS011;6794;59.218;18.218;2023-05-07T13:54:47;3.03;;;1.50;;
13443;SDS011;6794;59.218;18.218;2023-05-07T13:57:12;3.03;;;1.23;;
13443;SDS011;6794;59.218;18.218;2023-05-07T13:59:39;2.20;;;1.23;;
13443;SDS011;6794;59.218;18.218;2023-05-07T14:02:05;2.27;;;1.10;;
13443;SDS011;6794;59.218;18.218;2023-05-07T14:04:31;2.90;;;1.40;;
13443;SDS011;6794;59.218;18.218;2023-05-07T14:06:57;2.03;;;1.30;;
13443;SDS011;6794;59.218;18.218;2023-05-07T14:09:23;2.70;;;1.27;;
13443;SDS011;6794;59.218;18.218;2023-05-07T14:11:49;1.10;;;1.00;;
13443;SDS011;6794;59.218;18.218;2023-05-07T14:14:17;2.30;;;1.37;;
13443;SDS011;6794;59.218;18.218;2023-05-07T14:16:43;3.37;;;1.30;;
13443;SDS011;6794;59.218;18.218;2023-05-07T14:19:09;1.73;;;1.50;;
13443;SDS011;6794;59.218;18.218;2023-05-07T14:21:35;3.37;;;1.30;;
13443;SDS011;6794;59.218;18.218;2023-05-07T14:24:02;2.40;;;1.10;;
13443;SDS011;6794;59.218;18.218;2023-05-07T14:26:28;3.67;;;1.30;;
13443;SDS011;6794;59.218;18.218;2023-05-07T14:28:54;1.70;;;1.30;;
13443;SDS011;6794;59.218;18.218;2023-05-07T14:31:22;2.03;;;1.20;;
13443;SDS011;6794;59.218;18.218;2023-05-07T14:33:48;3.80;;;1.23;;
13443;SDS011;6794;59.218;18.218;2023-05-07T14:36:18;2.50;;;1.30;;
13443;SDS011;6794;59.218;18.218;2023-05-07T14:38:46;1.27;;;1.17;;
13443;SDS011;6794;59.218;18.218;2023-05-07T14:41:12;1.60;;;1.30;;
13443;SDS011;6794;59.218;18.218;2023-05-07T14:43:38;3.23;;;1.30;;
13443;SDS011;6794;59.218;18.218;2023-05-07T14:46:04;2.33;;;1.30;;
13443;SDS011;6794;59.218;18.218;2023-05-07T14:48:30;2.43;;;1.33;;
13443;SDS011;6794;59.218;18.218;2023-05-07T14:50:56;1.37;;;1.27;;
13443;SDS011;6794;59.218;18.218;2023-05-07T14:53:22;2.20;;;1.33;;
13443;SDS011;6794;59.218;18.218;2023-05-07T14:55:48;2.10;;;1.53;;
13443;SDS011;6794;59.218;18.218;2023-05-07T14:58:14;1.33;;;1.10;;
13443;SDS011;6794;59.218;18.218;2023-05-07T15:00:40;3.47;;;1.37;;
13443;SDS011;6794;59.218;18.218;2023-05-07T15:03:07;3.43;;;1.17;;